Time;durP1;ratioP1;P1;durP2;ratioP2;P2;SDS_P1;SDS_P2;PMS_P1;PMS_P2;Temp;Humidity;BMP_temperature;BMP_pressure;BME280_temperature;BME280_humidity;BME280_pressure;Samples;Min_cycle;Max_cycle;Signal;HPM_P1;HPM_P2
2021/04/05 00:00:23;;;;;;;36.87;21.80;;;4.40;99.90;;;;;;5023112;28;20188;-82
2021/04/05 00:02:49;;;;;;;33.10;21.50;;;4.40;99.90;;;;;;5019992;28;20204;-80
2021/04/05 00:05:18;;;;;;;35.57;23.33;;;4.40;99.90;;;;;;5023022;28;20440;-79
2021/04/05 00:07:45;;;;;;;41.17;23.97;;;4.40;99.90;;;;;;5028567;28;20192;-79
2021/04/05 00:10:13;;;;;;;30.23;21.33;;;4.30;99.90;;;;;;5020326;28;20449;-81
2021/04/05 00:12:39;;;;;;;31.60;21.53;;;4.30;99.90;;;;;;5029319;28;20480;-81
2021/04/05 00:15:07;;;;;;;32.17;21.70;;;4.30;99.90;;;;;;5019651;28;20926;-79
2021/04/05 00:17:33;;;;;;;35.30;22.20;;;4.30;99.90;;;;;;5022996;28;20196;-79
2021/04/05 00:19:59;;;;;;;38.87;21.40;;;4.30;99.90;;;;;;5026365;28;20423;-79
2021/04/05 00:22:24;;;;;;;33.10;21.73;;;4.20;99.90;;;;;;5027593;28;20845;-80
2021/04/05 00:24:50;;;;;;;35.37;22.00;;;4.20;99.90;;;;;;5022909;28;20188;-81
2021/04/05 00:27:16;;;;;;;37.93;23.90;;;4.20;99.90;;;;;;5025675;28;20187;-80
2021/04/05 00:29:41;;;;;;;32.97;22.93;;;4.20;99.90;;;;;;5024193;28;20204;-80
2021/04/05 00:32:07;;;;;;;31.97;22.20;;;4.20;99.90;;;;;;5025527;28;20211;-80
2021/04/05 00:34:33;;;;;;;34.50;20.80;;;4.20;99.90;;;;;;5022424;28;20267;-81
2021/04/05 00:36:58;;;;;;;33.90;22.30;;;4.20;99.90;;;;;;5024573;28;20414;-80
2021/04/05 00:39:24;;;;;;;37.57;23.27;;;4.40;99.90;;;;;;5023780;28;20184;-81
2021/04/05 00:41:50;;;;;;;30.20;21.50;;;4.40;99.90;;;;;;5009236;28;20195;-80
2021/04/05 00:44:15;;;;;;;36.90;22.50;;;4.40;99.90;;;;;;5026103;28;20187;-81
2021/04/05 00:46:41;;;;;;;35.33;22.73;;;4.30;99.90;;;;;;5028199;28;20188;-81
2021/04/05 00:49:07;;;;;;;34.03;21.00;;;4.40;99.90;;;;;;5019221;28;20203;-81
2021/04/05 00:51:33;;;;;;;39.27;22.07;;;4.40;99.90;;;;;;5024023;28;20639;-81
2021/04/05 00:53:59;;;;;;;30.43;18.23;;;4.50;99.90;;;;;;5023105;28;20410;-82
2021/04/05 00:56:27;;;;;;;31.70;19.60;;;4.50;99.90;;;;;;5022847;28;20271;-81
2021/04/05 00:58:53;;;;;;;31.37;21.07;;;4.40;99.90;;;;;;5025206;28;20418;-81
2021/04/05 01:01:24;;;;;;;30.10;19.33;;;4.40;99.90;;;;;;5024177;28;20472;-79
2021/04/05 01:03:50;;;;;;;31.07;19.20;;;4.50;99.90;;;;;;5024188;28;20414;-80
2021/04/05 01:06:25;;;;;;;26.53;18.87;;;4.40;99.90;;;;;;5026752;28;20423;-81
2021/04/05 01:08:51;;;;;;;30.13;19.60;;;4.40;99.90;;;;;;5021474;28;20917;-80
2021/04/05 01:11:19;;;;;;;31.80;20.57;;;4.40;99.90;;;;;;5016234;28;20453;-80
2021/04/05 01:13:46;;;;;;;27.07;18.43;;;4.40;99.90;;;;;;5028146;28;20434;-79
2021/04/05 01:16:12;;;;;;;31.73;20.77;;;4.40;99.90;;;;;;5031246;28;20417;-79
2021/04/05 01:18:39;;;;;;;25.83;18.17;;;4.40;99.90;;;;;;5024442;28;20513;-80
2021/04/05 01:21:06;;;;;;;30.53;19.73;;;4.40;99.90;;;;;;5028929;28;20753;-79
2021/04/05 01:23:31;;;;;;;31.53;17.67;;;4.30;99.90;;;;;;5029455;28;20425;-78
2021/04/05 01:25:57;;;;;;;26.40;17.97;;;4.30;99.90;;;;;;5035403;28;20418;-80
2021/04/05 01:28:23;;;;;;;28.00;18.97;;;4.30;99.90;;;;;;5026187;28;20203;-81
2021/04/05 01:30:51;;;;;;;27.30;17.73;;;4.40;99.90;;;;;;5021884;28;20648;-82
2021/04/05 01:33:34;;;;;;;27.23;18.47;;;4.40;99.90;;;;;;5026436;28;20898;-81
2021/04/05 01:36:13;;;;;;;27.47;17.70;;;4.30;99.90;;;;;;5022289;28;20422;-82
2021/04/05 01:38:39;;;;;;;27.80;18.57;;;4.30;99.90;;;;;;5029875;28;20428;-80
2021/04/05 01:41:11;;;;;;;26.03;18.67;;;4.30;99.90;;;;;;5023680;28;20887;-79
2021/04/05 01:43:38;;;;;;;26.53;18.37;;;4.20;99.90;;;;;;5032055;28;20436;-80
2021/04/05 01:46:06;;;;;;;29.67;17.80;;;4.20;99.90;;;;;;5023147;28;20488;-81
2021/04/05 01:48:32;;;;;;;25.33;17.80;;;4.20;99.90;;;;;;5024052;28;20458;-81
2021/04/05 01:51:00;;;;;;;24.80;18.27;;;4.10;99.90;;;;;;5024275;28;20418;-81
2021/04/05 01:53:27;;;;;;;24.53;17.70;;;4.20;99.90;;;;;;5022935;28;20445;-81
2021/04/05 01:55:53;;;;;;;25.50;17.90;;;4.10;99.90;;;;;;5026725;28;20415;-80
2021/04/05 01:58:20;;;;;;;37.07;20.10;;;4.10;99.90;;;;;;5019257;28;20965;-80
2021/04/05 02:00:48;;;;;;;32.30;19.57;;;4.10;99.90;;;;;;5021844;28;20425;-81
2021/04/05 02:03:14;;;;;;;27.50;18.90;;;4.10;99.90;;;;;;5018491;28;20457;-80
2021/04/05 02:05:47;;;;;;;28.23;19.00;;;4.10;99.90;;;;;;5026219;28;20430;-79
2021/04/05 02:08:12;;;;;;;27.90;17.20;;;4.10;99.90;;;;;;5029468;28;20196;-79
2021/04/05 02:10:38;;;;;;;30.63;18.40;;;4.00;99.90;;;;;;5028934;28;20425;-79
2021/04/05 02:13:04;;;;;;;24.27;17.90;;;4.00;99.90;;;;;;5030837;28;20215;-82
2021/04/05 02:15:33;;;;;;;32.47;19.17;;;4.00;99.90;;;;;;5025525;28;20183;-79
2021/04/05 02:17:59;;;;;;;29.27;18.20;;;4.00;99.90;;;;;;5027526;28;20516;-80
2021/04/05 02:20:25;;;;;;;26.00;17.30;;;3.90;99.90;;;;;;5026223;28;20822;-79
2021/04/05 02:22:52;;;;;;;27.77;20.00;;;3.90;99.90;;;;;;5034700;28;20272;-78
2021/04/05 02:25:20;;;;;;;24.60;17.37;;;3.90;99.90;;;;;;5034683;28;20179;-79
2021/04/05 02:27:48;;;;;;;27.13;18.30;;;3.80;99.90;;;;;;5035395;28;20422;-80
2021/04/05 02:30:22;;;;;;;27.90;17.63;;;3.90;99.90;;;;;;5032683;28;20430;-79
2021/04/05 02:33:06;;;;;;;28.37;17.47;;;3.90;99.90;;;;;;5032663;28;20462;-79
2021/04/05 02:35:33;;;;;;;22.60;17.10;;;3.90;99.90;;;;;;5025824;28;20422;-79
2021/04/05 02:38:01;;;;;;;26.50;18.77;;;3.90;99.90;;;;;;5024870;28;20424;-83
2021/04/05 02:40:28;;;;;;;26.00;17.00;;;3.90;99.90;;;;;;5023345;28;20802;-80
2021/04/05 02:42:56;;;;;;;28.70;20.00;;;3.90;99.90;;;;;;5004429;28;20446;-80
2021/04/05 02:45:24;;;;;;;32.67;18.13;;;3.90;99.90;;;;;;5043887;28;20442;-79
2021/04/05 02:47:53;;;;;;;28.63;17.60;;;3.90;99.90;;;;;;5035662;28;20449;-80
2021/04/05 02:50:20;;;;;;;25.60;17.50;;;4.00;99.90;;;;;;5031559;28;20468;-81
2021/04/05 02:52:47;;;;;;;30.60;18.13;;;4.00;99.90;;;;;;5020340;28;20435;-80
2021/04/05 02:55:14;;;;;;;25.60;18.33;;;3.90;99.90;;;;;;5026351;28;20689;-80
2021/04/05 02:57:41;;;;;;;29.13;18.60;;;3.90;99.90;;;;;;5023196;28;20452;-80
2021/04/05 03:00:15;;;;;;;25.00;17.13;;;4.00;99.90;;;;;;5023530;28;20439;-82
2021/04/05 03:02:43;;;;;;;26.30;17.57;;;3.90;99.90;;;;;;5032272;28;20450;-82
2021/04/05 03:05:11;;;;;;;21.70;17.93;;;3.90;99.90;;;;;;5018609;28;20430;-80
2021/04/05 03:07:37;;;;;;;27.73;17.50;;;3.90;99.90;;;;;;5039494;28;20426;-82
2021/04/05 03:10:08;;;;;;;32.23;18.20;;;4.00;99.90;;;;;;5019605;28;20536;-82
2021/04/05 03:12:39;;;;;;;23.13;16.50;;;4.00;99.90;;;;;;5024060;28;20473;-83
2021/04/05 03:15:09;;;;;;;25.63;16.30;;;4.00;99.90;;;;;;5023789;28;20434;-82
2021/04/05 03:17:36;;;;;;;23.87;17.10;;;4.10;99.90;;;;;;5022583;28;21005;-80
2021/04/05 03:20:13;;;;;;;19.17;15.70;;;4.20;99.90;;;;;;5026321;28;20426;-81
2021/04/05 03:22:39;;;;;;;23.77;16.90;;;4.30;99.90;;;;;;5025784;28;20442;-81
2021/04/05 03:25:12;;;;;;;18.90;16.53;;;4.40;99.90;;;;;;5028617;28;20770;-82
2021/04/05 03:27:38;;;;;;;24.60;15.60;;;4.50;99.90;;;;;;5026825;28;20419;-81
2021/04/05 03:30:04;;;;;;;19.47;15.10;;;4.60;99.90;;;;;;5024485;28;21024;-81
2021/04/05 03:32:31;;;;;;;28.93;15.70;;;4.70;99.90;;;;;;5023190;28;20286;-81
2021/04/05 03:35:01;;;;;;;18.27;14.00;;;4.80;99.90;;;;;;5022311;28;20432;-80
2021/04/05 03:37:30;;;;;;;18.83;14.20;;;4.90;99.90;;;;;;5024364;28;20793;-81
2021/04/05 03:39:55;;;;;;;17.93;14.53;;;5.00;99.90;;;;;;5025880;28;20429;-80
2021/04/05 03:42:37;;;;;;;20.27;17.13;;;5.10;99.90;;;;;;5017938;28;20497;-80
2021/04/05 03:45:09;;;;;;;21.00;14.20;;;5.10;99.90;;;;;;5018064;28;20413;-80
2021/04/05 03:47:50;;;;;;;20.27;13.87;;;5.10;99.90;;;;;;5025397;28;20773;-80
2021/04/05 03:50:31;;;;;;;23.43;15.20;;;5.20;99.90;;;;;;5028450;28;20476;-83
2021/04/05 03:53:10;;;;;;;20.10;15.13;;;5.20;99.90;;;;;;5021056;28;20441;-82
2021/04/05 03:55:39;;;;;;;16.10;13.47;;;5.20;99.90;;;;;;5033842;28;20421;-83
2021/04/05 03:58:12;;;;;;;22.80;13.60;;;5.30;99.90;;;;;;5026229;28;20784;-79
2021/04/05 04:00:41;;;;;;;18.37;12.77;;;5.40;99.90;;;;;;5027549;28;20418;-80
2021/04/05 04:03:11;;;;;;;15.53;12.57;;;5.50;99.90;;;;;;5021450;28;20810;-79
2021/04/05 04:05:42;;;;;;;20.77;13.70;;;5.50;99.90;;;;;;5027717;28;20523;-81
2021/04/05 04:08:23;;;;;;;16.77;11.60;;;5.50;99.90;;;;;;5030958;28;20418;-82
2021/04/05 04:10:52;;;;;;;20.23;12.17;;;5.50;99.90;;;;;;5023873;28;20417;-81
2021/04/05 04:13:19;;;;;;;21.17;13.20;;;5.60;99.90;;;;;;5025198;28;20473;-80
2021/04/05 04:15:49;;;;;;;22.70;11.53;;;5.60;99.90;;;;;;5022112;28;20839;-83
2021/04/05 04:18:17;;;;;;;16.93;11.03;;;5.70;99.90;;;;;;5025487;28;20410;-82
2021/04/05 04:20:43;;;;;;;18.50;13.93;;;5.70;99.90;;;;;;5029941;28;20418;-82
2021/04/05 04:23:11;;;;;;;15.27;10.97;;;5.70;99.90;;;;;;5025802;28;20433;-82
2021/04/05 04:25:36;;;;;;;17.33;11.40;;;5.70;99.90;;;;;;5024619;28;20524;-78
2021/04/05 04:28:04;;;;;;;17.17;11.80;;;5.70;99.90;;;;;;5035745;28;20422;-80
2021/04/05 04:30:33;;;;;;;18.67;12.80;;;5.70;99.90;;;;;;5025115;28;20644;-80
2021/04/05 04:33:01;;;;;;;15.17;11.07;;;5.70;99.90;;;;;;5022809;28;20571;-81
2021/04/05 04:35:27;;;;;;;17.17;11.63;;;5.70;99.90;;;;;;5023959;28;20433;-80
2021/04/05 04:37:53;;;;;;;20.40;12.17;;;5.80;99.90;;;;;;5024048;28;20417;-82
2021/04/05 04:40:24;;;;;;;14.70;11.13;;;5.80;99.90;;;;;;5024426;28;20432;-82
2021/04/05 04:42:50;;;;;;;18.20;11.03;;;5.90;99.90;;;;;;5024501;28;20513;-78
2021/04/05 04:45:17;;;;;;;16.67;11.00;;;5.90;99.90;;;;;;5028025;28;20430;-80
2021/04/05 04:47:43;;;;;;;16.50;11.60;;;5.90;99.90;;;;;;5030356;28;20474;-79
2021/04/05 04:50:10;;;;;;;13.30;9.73;;;5.90;99.90;;;;;;5032784;28;20478;-80
2021/04/05 04:52:35;;;;;;;15.17;10.80;;;5.90;99.90;;;;;;5029793;28;20998;-82
2021/04/05 04:55:01;;;;;;;16.00;11.10;;;5.80;99.90;;;;;;5029102;28;20468;-81
2021/04/05 04:57:27;;;;;;;13.33;10.40;;;5.90;99.90;;;;;;5031039;28;20240;-81
2021/04/05 04:59:54;;;;;;;18.13;11.40;;;5.80;99.90;;;;;;5029034;28;20196;-79
2021/04/05 05:02:19;;;;;;;15.60;10.53;;;5.90;99.90;;;;;;5010061;28;20582;-81
2021/04/05 05:04:47;;;;;;;15.87;10.87;;;5.80;99.90;;;;;;5030924;28;20430;-79
2021/04/05 05:07:14;;;;;;;17.10;10.37;;;5.80;99.90;;;;;;5034981;28;20187;-82
2021/04/05 05:09:40;;;;;;;13.07;9.80;;;5.80;99.90;;;;;;5026063;28;20465;-81
2021/04/05 05:12:06;;;;;;;14.37;10.13;;;5.80;99.90;;;;;;5031698;28;20434;-82
2021/04/05 05:14:32;;;;;;;15.50;11.00;;;5.80;99.90;;;;;;5021816;28;20425;-81
2021/04/05 05:16:59;;;;;;;15.67;10.80;;;5.80;99.90;;;;;;5026445;28;20484;-82
2021/04/05 05:19:26;;;;;;;14.60;10.93;;;5.80;99.90;;;;;;5027568;28;20210;-82
2021/04/05 05:21:58;;;;;;;11.70;9.70;;;5.80;99.90;;;;;;5038012;28;20474;-80
2021/04/05 05:24:29;;;;;;;16.20;10.43;;;5.80;99.90;;;;;;5013359;28;20527;-81
2021/04/05 05:26:56;;;;;;;15.20;10.93;;;5.70;99.90;;;;;;5023489;28;20417;-81
2021/04/05 05:29:23;;;;;;;16.90;10.93;;;5.70;99.90;;;;;;5021516;28;20469;-81
2021/04/05 05:31:49;;;;;;;14.83;10.40;;;5.80;99.90;;;;;;5016224;28;20456;-81
2021/04/05 05:34:18;;;;;;;14.60;10.30;;;5.80;99.90;;;;;;5021697;28;20512;-78
2021/04/05 05:36:46;;;;;;;17.03;9.93;;;5.80;99.90;;;;;;5022144;28;20421;-80
2021/04/05 05:39:13;;;;;;;16.77;9.93;;;5.80;99.90;;;;;;5024202;28;20506;-80
2021/04/05 05:41:44;;;;;;;15.53;10.20;;;5.80;99.90;;;;;;5022136;28;20438;-82
2021/04/05 05:44:23;;;;;;;14.03;10.43;;;5.80;99.90;;;;;;5026294;28;20507;-80
2021/04/05 05:46:57;;;;;;;12.70;9.60;;;5.80;99.90;;;;;;5023785;28;20486;-82
2021/04/05 05:49:48;;;;;;;14.53;9.80;;;5.80;99.90;;;;;;5022699;28;20830;-81
2021/04/05 05:52:51;;;;;;;16.90;11.27;;;5.80;99.90;;;;;;5006236;28;20989;-81
2021/04/05 05:55:40;;;;;;;15.97;10.60;;;5.80;99.90;;;;;;5022555;28;20418;-81
2021/04/05 05:58:16;;;;;;;14.50;10.43;;;5.80;99.90;;;;;;5017476;28;20501;-80
2021/04/05 06:00:50;;;;;;;14.53;9.60;;;5.80;99.90;;;;;;5026473;28;20476;-79
2021/04/05 06:03:31;;;;;;;14.23;10.03;;;5.80;99.90;;;;;;5025245;28;20439;-79
2021/04/05 06:06:23;;;;;;;16.93;10.13;;;5.80;99.90;;;;;;5018686;28;20840;-80
2021/04/05 06:09:05;;;;;;;16.30;11.13;;;5.90;99.90;;;;;;5028147;28;20481;-81
2021/04/05 06:11:59;;;;;;;21.10;10.60;;;5.90;99.90;;;;;;5031296;28;20445;-80
2021/04/05 06:14:56;;;;;;;16.10;10.90;;;5.80;99.90;;;;;;5020971;28;20509;-79
2021/04/05 06:17:36;;;;;;;17.37;12.03;;;5.90;99.90;;;;;;5028547;28;20433;-80
2021/04/05 06:20:18;;;;;;;14.50;10.40;;;5.90;99.90;;;;;;5019327;28;20422;-80
2021/04/05 06:23:18;;;;;;;19.03;11.03;;;5.90;99.90;;;;;;5028159;28;20524;-79
2021/04/05 06:26:18;;;;;;;13.57;11.23;;;5.90;99.90;;;;;;5029040;28;20414;-78
2021/04/05 06:28:56;;;;;;;16.10;11.23;;;5.90;99.90;;;;;;4954500;28;21507;-80
2021/04/05 06:31:52;;;;;;;16.13;10.47;;;5.90;99.90;;;;;;5022220;28;20466;-78
2021/04/05 06:34:33;;;;;;;17.90;11.93;;;5.90;99.90;;;;;;5022089;28;20423;-81
2021/04/05 06:37:26;;;;;;;19.67;13.07;;;5.90;99.90;;;;;;5016912;28;20418;-82
2021/04/05 06:39:58;;;;;;;18.53;12.60;;;6.00;99.90;;;;;;5024914;28;20833;-79
2021/04/05 06:42:48;;;;;;;21.47;13.43;;;6.10;99.90;;;;;;5026957;28;20442;-80
2021/04/05 06:45:42;;;;;;;19.50;12.90;;;6.10;99.90;;;;;;5027810;28;20418;-81
2021/04/05 06:48:29;;;;;;;27.00;14.27;;;6.10;99.90;;;;;;5023809;28;20454;-81
2021/04/05 06:51:22;;;;;;;22.87;13.53;;;6.20;99.90;;;;;;5023889;28;20454;-78
2021/04/05 06:54:23;;;;;;;20.50;15.30;;;6.20;99.90;;;;;;5026834;28;20421;-81
2021/04/05 06:57:10;;;;;;;24.47;15.03;;;6.20;99.90;;;;;;5023075;28;20875;-81
2021/04/05 06:59:57;;;;;;;23.77;14.33;;;6.30;99.90;;;;;;5023662;28;20418;-82
2021/04/05 07:02:43;;;;;;;23.30;14.83;;;6.30;99.90;;;;;;5019673;28;20453;-81
2021/04/05 07:05:09;;;;;;;23.60;15.83;;;6.30;99.90;;;;;;5021428;28;20833;-81
2021/04/05 07:07:44;;;;;;;27.03;17.40;;;6.40;99.90;;;;;;5026370;28;20430;-81
2021/04/05 07:10:20;;;;;;;22.67;16.40;;;6.40;99.90;;;;;;5019807;28;20209;-79
2021/04/05 07:13:05;;;;;;;24.20;17.27;;;6.40;99.90;;;;;;5010433;28;20830;-80
2021/04/05 07:15:57;;;;;;;29.83;18.70;;;6.40;99.90;;;;;;5017661;28;20414;-80
2021/04/05 07:18:48;;;;;;;27.10;17.87;;;6.50;99.90;;;;;;5024504;28;20504;-81
2021/04/05 07:21:41;;;;;;;22.77;16.87;;;6.50;99.90;;;;;;5027895;28;20444;-80
2021/04/05 07:24:19;;;;;;;23.33;16.70;;;6.60;99.90;;;;;;5024100;28;20415;-81
2021/04/05 07:27:03;;;;;;;29.23;18.60;;;6.70;99.90;;;;;;5031291;28;20432;-81
2021/04/05 07:30:04;;;;;;;25.27;16.93;;;6.70;99.90;;;;;;5021349;28;20459;-81
2021/04/05 07:32:41;;;;;;;26.27;17.03;;;6.70;99.90;;;;;;5022586;28;20531;-80
2021/04/05 07:35:19;;;;;;;29.27;18.53;;;6.70;99.90;;;;;;5015539;28;20429;-80
2021/04/05 07:38:27;;;;;;;27.87;18.50;;;6.60;99.90;;;;;;5031809;28;20425;-81
2021/04/05 07:41:00;;;;;;;25.03;16.77;;;6.50;99.90;;;;;;4957073;29;20413;-80
2021/04/05 07:43:38;;;;;;;27.50;18.30;;;6.60;99.90;;;;;;4938645;29;20465;-78
2021/04/05 07:46:18;;;;;;;27.93;17.70;;;6.60;99.90;;;;;;4951496;29;20456;-78
2021/04/05 07:49:42;;;;;;;26.03;17.63;;;6.70;99.90;;;;;;4949979;29;20522;-78
2021/04/05 07:52:23;;;;;;;27.20;17.87;;;6.70;99.90;;;;;;4868536;29;20453;-80
2021/04/05 07:54:49;;;;;;;27.03;18.27;;;6.70;99.90;;;;;;4875281;29;20425;-80
2021/04/05 07:57:33;;;;;;;35.63;20.17;;;6.70;99.90;;;;;;4887474;29;20425;-80
2021/04/05 08:00:10;;;;;;;22.87;16.97;;;6.70;99.90;;;;;;4873441;29;20433;-78
2021/04/05 08:02:42;;;;;;;38.43;18.20;;;6.70;99.90;;;;;;4884023;29;20809;-80
2021/04/05 08:05:26;;;;;;;25.80;19.37;;;6.80;99.90;;;;;;4878934;29;20909;-81
2021/04/05 08:08:17;;;;;;;26.50;17.70;;;6.80;99.90;;;;;;4875149;29;20435;-82
2021/04/05 08:11:00;;;;;;;30.83;19.53;;;6.80;99.90;;;;;;4884985;29;20435;-81
2021/04/05 08:13:41;;;;;;;29.73;19.93;;;6.90;99.90;;;;;;4943620;29;20441;-82
2021/04/05 08:16:29;;;;;;;30.17;19.90;;;6.90;99.90;;;;;;4933746;29;20504;-81
2021/04/05 08:18:54;;;;;;;27.23;19.27;;;7.00;99.90;;;;;;4944300;29;20476;-79
2021/04/05 08:21:24;;;;;;;28.60;19.83;;;7.00;99.90;;;;;;4943611;29;20930;-81
2021/04/05 08:24:09;;;;;;;25.87;18.13;;;7.00;99.90;;;;;;4920999;29;20178;-80
2021/04/05 08:26:57;;;;;;;32.27;22.40;;;7.10;99.90;;;;;;4940395;28;20442;-82
2021/04/05 08:29:57;;;;;;;30.43;21.30;;;7.10;99.90;;;;;;5024866;28;20457;-82
2021/04/05 08:32:38;;;;;;;29.13;18.60;;;7.20;99.90;;;;;;5016349;28;20454;-82
2021/04/05 08:35:58;;;;;;;29.07;20.80;;;7.20;99.90;;;;;;5013927;28;20415;-80
2021/04/05 08:38:37;;;;;;;27.97;20.63;;;7.20;99.90;;;;;;4904972;29;20789;-81
2021/04/05 08:41:14;;;;;;;28.77;21.17;;;7.30;99.90;;;;;;4883722;29;20428;-79
2021/04/05 08:44:09;;;;;;;33.67;23.00;;;7.20;99.90;;;;;;4907179;29;20869;-80
2021/04/05 08:46:36;;;;;;;28.80;18.83;;;7.20;99.90;;;;;;4892344;29;20436;-80
2021/04/05 08:49:16;;;;;;;27.70;21.87;;;7.20;99.90;;;;;;4905411;29;21046;-83
2021/04/05 08:52:07;;;;;;;23.47;19.43;;;7.30;99.90;;;;;;4907836;29;20541;-82
2021/04/05 08:54:39;;;;;;;32.70;19.17;;;7.40;99.90;;;;;;4904292;29;20499;-80
2021/04/05 08:57:16;;;;;;;26.77;18.83;;;7.40;99.90;;;;;;4911270;29;20455;-82
2021/04/05 09:00:09;;;;;;;29.77;18.87;;;7.50;99.90;;;;;;4888771;29;20442;-82
2021/04/05 09:02:42;;;;;;;30.13;19.90;;;7.60;99.90;;;;;;4903741;29;20458;-82
2021/04/05 09:05:28;;;;;;;27.23;19.83;;;7.60;99.90;;;;;;4905237;29;20448;-82
2021/04/05 09:08:02;;;;;;;25.40;18.57;;;7.60;99.90;;;;;;4893916;29;20458;-80
2021/04/05 09:10:30;;;;;;;29.13;20.27;;;7.50;99.90;;;;;;4903188;29;20464;-82
2021/04/05 09:12:59;;;;;;;23.40;18.90;;;7.50;99.90;;;;;;5002381;28;20446;-79
2021/04/05 09:15:27;;;;;;;27.07;18.50;;;7.60;99.90;;;;;;5033741;28;20418;-79
2021/04/05 09:18:30;;;;;;;27.20;19.63;;;7.60;99.90;;;;;;5033574;28;20470;-80
2021/04/05 09:21:21;;;;;;;27.03;20.80;;;7.60;99.90;;;;;;5027358;28;20461;-79
2021/04/05 09:24:33;;;;;;;29.07;18.83;;;7.60;99.90;;;;;;5028948;28;20417;-79
2021/04/05 09:27:20;;;;;;;30.87;19.83;;;7.60;99.90;;;;;;5022705;28;20841;-79
2021/04/05 09:30:27;;;;;;;27.20;20.90;;;7.50;99.90;;;;;;5027575;28;20469;-78
2021/04/05 09:33:30;;;;;;;24.23;18.10;;;7.40;99.90;;;;;;5025561;28;20508;-80
2021/04/05 09:36:34;;;;;;;25.80;18.30;;;7.50;99.90;;;;;;5017230;28;20431;-80
2021/04/05 09:39:03;;;;;;;30.27;21.60;;;7.50;99.90;;;;;;4997423;28;20495;-80
2021/04/05 09:41:53;;;;;;;25.00;19.07;;;7.50;99.90;;;;;;5019923;28;20453;-79
2021/04/05 09:44:53;;;;;;;30.00;20.63;;;7.50;99.90;;;;;;5021729;28;20422;-81
2021/04/05 09:47:30;;;;;;;27.67;20.50;;;7.40;99.90;;;;;;5017401;28;20853;-81
2021/04/05 09:50:25;;;;;;;25.03;19.47;;;7.40;99.90;;;;;;5016601;28;20847;-80
2021/04/05 09:53:12;;;;;;;30.47;19.47;;;7.40;99.90;;;;;;5018684;28;20443;-81
2021/04/05 09:55:43;;;;;;;30.20;20.50;;;7.30;99.90;;;;;;5029367;28;20973;-80
2021/04/05 09:58:20;;;;;;;28.70;20.20;;;7.40;99.90;;;;;;5022796;28;20791;-80
2021/04/05 10:00:56;;;;;;;27.27;19.50;;;7.40;99.90;;;;;;5026060;28;20436;-80
2021/04/05 10:03:22;;;;;;;27.07;20.10;;;7.40;99.90;;;;;;5017214;28;20425;-80
2021/04/05 10:05:51;;;;;;;27.47;21.13;;;7.40;99.90;;;;;;5026442;28;20405;-81
2021/04/05 10:08:27;;;;;;;30.10;21.67;;;7.30;99.90;;;;;;5025776;28;20545;-81
2021/04/05 10:10:54;;;;;;;32.27;21.20;;;7.30;99.90;;;;;;4994451;28;20421;-81
2021/04/05 10:13:23;;;;;;;26.17;19.63;;;7.30;99.90;;;;;;5012077;28;20469;-80
2021/04/05 10:15:55;;;;;;;27.37;20.83;;;7.40;99.90;;;;;;5019692;28;20537;-80
2021/04/05 10:18:25;;;;;;;34.07;21.30;;;7.30;99.90;;;;;;5010600;28;20437;-80
2021/04/05 10:20:52;;;;;;;30.27;20.77;;;7.30;99.90;;;;;;5004582;28;20448;-80
2021/04/05 10:23:21;;;;;;;25.90;19.83;;;7.30;99.90;;;;;;5029156;28;20442;-81
2021/04/05 10:25:59;;;;;;;28.57;20.80;;;7.30;99.90;;;;;;5026387;28;20428;-82
2021/04/05 10:28:32;;;;;;;27.00;20.60;;;7.30;99.90;;;;;;5022865;28;20449;-81
2021/04/05 10:31:01;;;;;;;30.40;19.73;;;7.30;99.90;;;;;;5018490;28;20419;-79
2021/04/05 10:33:32;;;;;;;27.00;19.20;;;7.30;99.90;;;;;;5027494;28;20425;-81
2021/04/05 10:36:04;;;;;;;27.27;19.50;;;7.30;99.90;;;;;;5007478;28;20454;-80
2021/04/05 10:38:31;;;;;;;23.13;18.30;;;7.30;99.90;;;;;;5034194;28;20422;-80
2021/04/05 10:40:57;;;;;;;26.37;19.70;;;7.30;99.90;;;;;;5012580;28;20494;-79
2021/04/05 10:43:26;;;;;;;27.90;18.90;;;7.20;99.90;;;;;;5005656;28;20470;-79
2021/04/05 10:46:05;;;;;;;26.30;19.87;;;7.20;99.90;;;;;;5020271;28;20641;-80
2021/04/05 10:48:41;;;;;;;29.53;18.83;;;7.20;99.90;;;;;;5028023;28;20908;-79
2021/04/05 10:51:21;;;;;;;27.37;19.57;;;7.20;99.90;;;;;;5032785;28;20838;-80
2021/04/05 10:53:52;;;;;;;27.90;18.83;;;7.20;99.90;;;;;;5024772;28;20938;-79
2021/04/05 10:56:19;;;;;;;24.57;18.00;;;7.20;99.90;;;;;;5030606;28;20411;-80
2021/04/05 10:58:52;;;;;;;34.27;20.27;;;7.20;99.90;;;;;;5020834;28;20430;-79
2021/04/05 11:01:20;;;;;;;29.33;19.80;;;7.20;99.90;;;;;;5032533;28;20521;-78
2021/04/05 11:03:49;;;;;;;25.50;18.00;;;7.30;99.90;;;;;;5005535;28;20978;-79
2021/04/05 11:06:19;;;;;;;23.73;18.53;;;7.20;99.90;;;;;;5020120;28;20419;-81
2021/04/05 11:08:48;;;;;;;28.20;19.80;;;7.20;99.90;;;;;;5034199;28;20466;-79
2021/04/05 11:11:20;;;;;;;25.53;17.43;;;7.20;99.90;;;;;;5037820;28;20477;-79
2021/04/05 11:13:52;;;;;;;25.30;17.23;;;7.20;99.90;;;;;;5031747;28;20429;-79
2021/04/05 11:16:19;;;;;;;24.37;16.97;;;7.10;99.90;;;;;;5035627;28;20422;-80
2021/04/05 11:18:48;;;;;;;16.70;13.83;;;7.10;99.90;;;;;;5019515;28;20414;-79
2021/04/05 11:21:16;;;;;;;16.23;14.40;;;7.10;99.90;;;;;;5028920;28;20449;-79
2021/04/05 11:23:42;;;;;;;20.27;14.80;;;7.00;99.90;;;;;;5023127;28;20444;-79
2021/04/05 11:26:10;;;;;;;24.50;15.07;;;7.00;99.90;;;;;;5025684;28;20551;-81
2021/04/05 11:28:39;;;;;;;21.10;14.97;;;7.00;99.90;;;;;;5027926;28;20860;-80
2021/04/05 11:31:13;;;;;;;19.23;13.97;;;6.90;99.90;;;;;;5018331;28;20415;-78
2021/04/05 11:34:06;;;;;;;23.80;17.20;;;6.90;99.90;;;;;;5022256;28;20485;-81
2021/04/05 11:36:44;;;;;;;20.20;13.97;;;6.80;99.90;;;;;;5016243;28;20479;-78
2021/04/05 11:39:13;;;;;;;24.53;15.67;;;6.70;99.90;;;;;;5019288;28;20493;-80
2021/04/05 11:41:40;;;;;;;19.67;14.57;;;6.60;99.90;;;;;;5025194;28;20446;-80
2021/04/05 11:44:07;;;;;;;26.97;14.53;;;6.50;99.90;;;;;;5025325;28;20441;-81
2021/04/05 11:46:36;;;;;;;23.10;15.10;;;6.30;99.90;;;;;;5022216;28;20795;-80
2021/04/05 11:49:10;;;;;;;19.43;13.80;;;6.20;99.90;;;;;;5028657;28;20497;-79
2021/04/05 11:51:54;;;;;;;21.23;14.50;;;6.10;99.90;;;;;;5031439;28;20430;-80
2021/04/05 11:54:31;;;;;;;18.57;13.87;;;6.00;99.90;;;;;;5027361;28;20456;-79
2021/04/05 11:57:01;;;;;;;26.60;14.90;;;5.90;99.90;;;;;;5000128;28;20421;-79
2021/04/05 11:59:29;;;;;;;24.50;13.90;;;5.90;99.90;;;;;;5025258;28;20794;-81
2021/04/05 12:02:03;;;;;;;18.57;12.50;;;5.80;99.90;;;;;;5021996;28;20446;-80
2021/04/05 12:04:39;;;;;;;17.97;13.57;;;5.70;99.90;;;;;;5023412;28;20791;-80
2021/04/05 12:07:04;;;;;;;19.43;12.23;;;5.70;99.90;;;;;;5020209;28;20455;-81
2021/04/05 12:09:43;;;;;;;18.57;13.00;;;5.80;99.90;;;;;;5015450;28;20901;-80
2021/04/05 12:12:17;;;;;;;18.33;13.43;;;5.80;99.90;;;;;;5003353;28;20228;-80
2021/04/05 12:14:44;;;;;;;17.13;11.80;;;5.80;99.90;;;;;;5021371;28;20969;-80
2021/04/05 12:17:10;;;;;;;19.23;12.87;;;5.80;99.90;;;;;;5010575;28;20494;-81
2021/04/05 12:19:45;;;;;;;18.43;13.07;;;5.80;99.90;;;;;;5014561;28;20426;-81
2021/04/05 12:22:12;;;;;;;21.20;14.20;;;5.70;99.90;;;;;;5038170;28;20472;-81
2021/04/05 12:24:46;;;;;;;19.10;13.17;;;5.60;99.90;;;;;;5028729;28;20542;-82
2021/04/05 12:27:13;;;;;;;29.67;16.27;;;5.50;99.90;;;;;;5029438;28;20422;-83
2021/04/05 12:29:42;;;;;;;17.00;12.77;;;5.50;99.90;;;;;;5027640;28;20460;-81
2021/04/05 12:32:14;;;;;;;22.87;14.80;;;5.50;99.90;;;;;;5010946;28;20523;-81
2021/04/05 12:34:41;;;;;;;13.03;9.60;;;5.50;99.90;;;;;;4995356;28;20426;-81
2021/04/05 12:37:17;;;;;;;7.37;6.03;;;5.50;99.90;;;;;;5028711;28;20934;-82
2021/04/05 12:39:49;;;;;;;3.23;2.90;;;5.50;99.90;;;;;;5034984;28;20916;-82
2021/04/05 12:42:15;;;;;;;3.70;2.97;;;5.30;99.90;;;;;;5032403;28;20541;-83
2021/04/05 12:44:44;;;;;;;2.70;2.50;;;5.20;99.90;;;;;;5026870;28;20491;-81
2021/04/05 12:47:12;;;;;;;2.10;1.90;;;5.10;99.90;;;;;;5029238;28;20422;-82
2021/04/05 12:49:43;;;;;;;2.90;2.30;;;5.10;99.90;;;;;;5018215;28;20823;-83
2021/04/05 12:52:12;;;;;;;3.00;2.07;;;5.00;99.90;;;;;;5031983;28;20496;-83
2021/04/05 12:54:44;;;;;;;2.57;2.37;;;4.90;99.90;;;;;;5026764;28;20456;-83
2021/04/05 12:57:10;;;;;;;2.40;2.30;;;4.90;99.90;;;;;;5027297;28;20491;-80
2021/04/05 12:59:39;;;;;;;2.50;2.30;;;4.90;99.90;;;;;;5025743;28;20430;-80
2021/04/05 13:02:11;;;;;;;2.87;2.60;;;4.80;99.90;;;;;;5021738;28;20454;-83
2021/04/05 13:04:42;;;;;;;3.27;1.77;;;4.70;99.90;;;;;;5006354;28;20882;-82
2021/04/05 13:07:15;;;;;;;2.00;1.80;;;4.70;99.90;;;;;;5030276;28;20430;-83
2021/04/05 13:09:47;;;;;;;1.90;1.80;;;4.50;99.90;;;;;;5014710;28;21021;-82
2021/04/05 13:12:52;;;;;;;2.13;1.60;;;4.40;99.90;;;;;;5023457;28;20465;-83